sensor_id;sensor_type;location;lat;lon;timestamp;P1;durP1;ratioP1;P2;durP2;ratioP2
209;SDS011;90;48.810;9.120;2023-08-24T00:01:37;15.87;;;12.00;;
209;SDS011;90;48.810;9.120;2023-08-24T00:04:05;13.50;;;12.80;;
209;SDS011;90;48.810;9.120;2023-08-24T00:06:33;21.67;;;12.20;;
209;SDS011;90;48.810;9.120;2023-08-24T00:09:00;18.13;;;12.50;;
209;SDS011;90;48.810;9.120;2023-08-24T00:11:30;18.17;;;12.83;;
209;SDS011;90;48.810;9.120;2023-08-24T00:13:58;15.17;;;12.83;;
209;SDS011;90;48.810;9.120;2023-08-24T00:16:25;16.70;;;10.80;;
209;SDS011;90;48.810;9.120;2023-08-24T00:18:52;12.77;;;12.07;;
209;SDS011;90;48.810;9.120;2023-08-24T00:21:20;17.47;;;13.23;;
209;SDS011;90;48.810;9.120;2023-08-24T00:23:52;15.63;;;12.23;;
209;SDS011;90;48.810;9.120;2023-08-24T00:26:19;16.80;;;12.50;;
209;SDS011;90;48.810;9.120;2023-08-24T00:28:46;15.93;;;12.27;;
209;SDS011;90;48.810;9.120;2023-08-24T00:31:16;15.70;;;11.47;;
209;SDS011;90;48.810;9.120;2023-08-24T00:33:43;14.20;;;11.90;;
209;SDS011;90;48.810;9.120;2023-08-24T00:36:10;13.00;;;12.30;;
209;SDS011;90;48.810;9.120;2023-08-24T00:38:37;17.17;;;12.93;;
209;SDS011;90;48.810;9.120;2023-08-24T00:41:04;14.80;;;13.07;;
209;SDS011;90;48.810;9.120;2023-08-24T00:43:32;14.93;;;12.30;;
209;SDS011;90;48.810;9.120;2023-08-24T00:46:01;15.60;;;13.93;;
209;SDS011;90;48.810;9.120;2023-08-24T00:48:30;19.13;;;13.23;;
209;SDS011;90;48.810;9.120;2023-08-24T00:50:59;16.23;;;12.20;;
209;SDS011;90;48.810;9.120;2023-08-24T00:53:28;15.37;;;12.43;;
209;SDS011;90;48.810;9.120;2023-08-24T00:55:55;16.63;;;13.50;;
209;SDS011;90;48.810;9.120;2023-08-24T00:58:23;16.13;;;13.30;;
209;SDS011;90;48.810;9.120;2023-08-24T01:00:50;14.38;;;11.70;;
209;SDS011;90;48.810;9.120;2023-08-24T01:03:19;14.70;;;13.17;;
209;SDS011;90;48.810;9.120;2023-08-24T01:05:47;15.70;;;12.20;;
209;SDS011;90;48.810;9.120;2023-08-24T01:08:14;17.23;;;13.27;;
209;SDS011;90;48.810;9.120;2023-08-24T01:10:47;13.13;;;12.10;;
209;SDS011;90;48.810;9.120;2023-08-24T01:13:17;13.93;;;11.90;;
209;SDS011;90;48.810;9.120;2023-08-24T01:15:47;13.77;;;13.07;;
209;SDS011;90;48.810;9.120;2023-08-24T01:18:18;13.50;;;12.53;;
209;SDS011;90;48.810;9.120;2023-08-24T01:20:48;16.23;;;13.40;;
209;SDS011;90;48.810;9.120;2023-08-24T01:23:25;12.77;;;12.10;;
209;SDS011;90;48.810;9.120;2023-08-24T01:26:00;15.73;;;12.00;;
209;SDS011;90;48.810;9.120;2023-08-24T01:28:29;14.23;;;13.10;;
209;SDS011;90;48.810;9.120;2023-08-24T01:30:56;15.93;;;12.80;;
209;SDS011;90;48.810;9.120;2023-08-24T01:33:24;17.63;;;13.23;;
209;SDS011;90;48.810;9.120;2023-08-24T01:35:51;15.97;;;12.83;;
209;SDS011;90;48.810;9.120;2023-08-24T01:38:20;14.57;;;13.83;;
209;SDS011;90;48.810;9.120;2023-08-24T01:40:52;18.70;;;14.23;;
209;SDS011;90;48.810;9.120;2023-08-24T01:43:28;22.00;;;13.23;;
209;SDS011;90;48.810;9.120;2023-08-24T01:45:58;18.23;;;12.50;;
209;SDS011;90;48.810;9.120;2023-08-24T01:48:27;14.27;;;12.70;;
209;SDS011;90;48.810;9.120;2023-08-24T01:50:55;17.83;;;13.60;;
209;SDS011;90;48.810;9.120;2023-08-24T01:53:22;14.93;;;12.70;;
209;SDS011;90;48.810;9.120;2023-08-24T01:55:49;15.97;;;14.00;;
209;SDS011;90;48.810;9.120;2023-08-24T01:58:18;13.80;;;12.70;;
209;SDS011;90;48.810;9.120;2023-08-24T02:00:46;13.67;;;12.80;;
209;SDS011;90;48.810;9.120;2023-08-24T02:03:14;18.53;;;14.47;;
209;SDS011;90;48.810;9.120;2023-08-24T02:05:41;16.60;;;13.70;;
209;SDS011;90;48.810;9.120;2023-08-24T02:08:08;15.37;;;13.87;;
209;SDS011;90;48.810;9.120;2023-08-24T02:10:37;17.57;;;13.93;;
209;SDS011;90;48.810;9.120;2023-08-24T02:13:04;16.10;;;14.27;;
209;SDS011;90;48.810;9.120;2023-08-24T02:15:31;17.60;;;14.07;;
209;SDS011;90;48.810;9.120;2023-08-24T02:18:00;16.90;;;14.17;;
209;SDS011;90;48.810;9.120;2023-08-24T02:20:27;15.03;;;14.03;;
209;SDS011;90;48.810;9.120;2023-08-24T02:22:54;15.00;;;13.63;;
209;SDS011;90;48.810;9.120;2023-08-24T02:25:21;15.53;;;14.17;;
209;SDS011;90;48.810;9.120;2023-08-24T02:27:49;14.40;;;12.90;;
209;SDS011;90;48.810;9.120;2023-08-24T02:30:19;13.93;;;12.97;;
209;SDS011;90;48.810;9.120;2023-08-24T02:32:46;14.97;;;14.10;;
209;SDS011;90;48.810;9.120;2023-08-24T02:35:15;18.20;;;13.50;;
209;SDS011;90;48.810;9.120;2023-08-24T02:37:43;15.50;;;13.23;;
209;SDS011;90;48.810;9.120;2023-08-24T02:40:10;15.33;;;14.00;;
209;SDS011;90;48.810;9.120;2023-08-24T02:42:37;16.43;;;13.20;;
209;SDS011;90;48.810;9.120;2023-08-24T02:45:05;15.50;;;12.30;;
209;SDS011;90;48.810;9.120;2023-08-24T02:47:32;13.87;;;13.17;;
209;SDS011;90;48.810;9.120;2023-08-24T02:50:01;17.43;;;13.53;;
209;SDS011;90;48.810;9.120;2023-08-24T02:52:31;17.00;;;14.53;;
209;SDS011;90;48.810;9.120;2023-08-24T02:54:58;15.63;;;13.57;;
209;SDS011;90;48.810;9.120;2023-08-24T02:57:25;14.43;;;13.73;;
209;SDS011;90;48.810;9.120;2023-08-24T02:59:53;16.03;;;14.20;;
209;SDS011;90;48.810;9.120;2023-08-24T03:02:21;19.50;;;14.60;;
209;SDS011;90;48.810;9.120;2023-08-24T03:04:48;16.13;;;13.67;;
209;SDS011;90;48.810;9.120;2023-08-24T03:07:15;18.10;;;14.70;;
209;SDS011;90;48.810;9.120;2023-08-24T03:09:44;13.03;;;12.33;;
209;SDS011;90;48.810;9.120;2023-08-24T03:12:11;16.23;;;13.40;;
209;SDS011;90;48.810;9.120;2023-08-24T03:14:38;18.07;;;13.47;;
209;SDS011;90;48.810;9.120;2023-08-24T03:17:05;14.27;;;13.13;;
209;SDS011;90;48.810;9.120;2023-08-24T03:19:32;13.55;;;12.85;;
209;SDS011;90;48.810;9.120;2023-08-24T03:22:00;22.37;;;13.80;;
209;SDS011;90;48.810;9.120;2023-08-24T03:24:27;16.70;;;14.30;;
209;SDS011;90;48.810;9.120;2023-08-24T03:26:55;17.43;;;14.00;;
209;SDS011;90;48.810;9.120;2023-08-24T03:29:23;17.07;;;13.63;;
209;SDS011;90;48.810;9.120;2023-08-24T03:31:49;19.27;;;13.47;;
209;SDS011;90;48.810;9.120;2023-08-24T03:34:18;15.93;;;13.80;;
209;SDS011;90;48.810;9.120;2023-08-24T03:36:45;15.30;;;13.03;;
209;SDS011;90;48.810;9.120;2023-08-24T03:39:13;16.73;;;14.40;;
209;SDS011;90;48.810;9.120;2023-08-24T03:41:41;16.70;;;14.50;;
209;SDS011;90;48.810;9.120;2023-08-24T03:44:09;18.27;;;14.57;;
209;SDS011;90;48.810;9.120;2023-08-24T03:46:37;20.10;;;14.77;;
209;SDS011;90;48.810;9.120;2023-08-24T03:49:04;17.47;;;14.83;;
209;SDS011;90;48.810;9.120;2023-08-24T03:51:31;16.30;;;14.23;;
209;SDS011;90;48.810;9.120;2023-08-24T03:53:58;16.47;;;14.37;;
209;SDS011;90;48.810;9.120;2023-08-24T03:56:25;16.17;;;13.50;;
209;SDS011;90;48.810;9.120;2023-08-24T03:58:52;18.53;;;14.27;;
209;SDS011;90;48.810;9.120;2023-08-24T04:01:21;15.73;;;13.30;;
209;SDS011;90;48.810;9.120;2023-08-24T04:03:48;16.90;;;13.27;;
209;SDS011;90;48.810;9.120;2023-08-24T04:06:17;15.63;;;13.70;;
209;SDS011;90;48.810;9.120;2023-08-24T04:08:44;15.30;;;13.90;;
209;SDS011;90;48.810;9.120;2023-08-24T04:11:11;16.30;;;14.03;;
209;SDS011;90;48.810;9.120;2023-08-24T04:13:38;18.10;;;14.77;;
209;SDS011;90;48.810;9.120;2023-08-24T04:16:05;17.30;;;13.75;;
209;SDS011;90;48.810;9.120;2023-08-24T04:18:34;16.83;;;14.00;;
209;SDS011;90;48.810;9.120;2023-08-24T04:21:01;19.43;;;14.50;;
209;SDS011;90;48.810;9.120;2023-08-24T04:23:30;15.83;;;14.57;;
209;SDS011;90;48.810;9.120;2023-08-24T04:25:57;19.90;;;14.80;;
209;SDS011;90;48.810;9.120;2023-08-24T04:28:24;15.10;;;14.30;;
209;SDS011;90;48.810;9.120;2023-08-24T04:30:52;19.30;;;14.97;;
209;SDS011;90;48.810;9.120;2023-08-24T04:33:21;20.15;;;13.40;;
209;SDS011;90;48.810;9.120;2023-08-24T04:35:49;18.90;;;15.20;;
209;SDS011;90;48.810;9.120;2023-08-24T04:38:16;21.20;;;16.43;;
209;SDS011;90;48.810;9.120;2023-08-24T04:40:45;21.80;;;16.93;;
209;SDS011;90;48.810;9.120;2023-08-24T04:43:13;26.47;;;19.00;;
209;SDS011;90;48.810;9.120;2023-08-24T04:45:40;23.30;;;18.50;;
209;SDS011;90;48.810;9.120;2023-08-24T04:48:07;22.90;;;17.90;;
209;SDS011;90;48.810;9.120;2023-08-24T04:50:34;23.33;;;17.93;;
209;SDS011;90;48.810;9.120;2023-08-24T04:53:03;21.13;;;17.03;;
209;SDS011;90;48.810;9.120;2023-08-24T04:55:30;23.10;;;19.43;;
209;SDS011;90;48.810;9.120;2023-08-24T04:57:57;26.20;;;17.67;;
209;SDS011;90;48.810;9.120;2023-08-24T05:00:24;25.87;;;18.80;;
209;SDS011;90;48.810;9.120;2023-08-24T05:02:51;22.33;;;17.80;;
209;SDS011;90;48.810;9.120;2023-08-24T05:05:18;22.90;;;18.30;;
209;SDS011;90;48.810;9.120;2023-08-24T05:07:46;20.47;;;17.57;;
209;SDS011;90;48.810;9.120;2023-08-24T05:10:15;20.43;;;17.00;;
209;SDS011;90;48.810;9.120;2023-08-24T05:12:42;23.57;;;16.93;;
209;SDS011;90;48.810;9.120;2023-08-24T05:15:09;23.63;;;16.30;;
209;SDS011;90;48.810;9.120;2023-08-24T05:17:38;17.63;;;16.37;;
209;SDS011;90;48.810;9.120;2023-08-24T05:20:06;23.13;;;17.50;;
209;SDS011;90;48.810;9.120;2023-08-24T05:22:35;21.80;;;16.07;;
209;SDS011;90;48.810;9.120;2023-08-24T05:25:02;24.43;;;16.80;;
209;SDS011;90;48.810;9.120;2023-08-24T05:27:32;22.10;;;16.93;;
209;SDS011;90;48.810;9.120;2023-08-24T05:29:59;26.33;;;17.57;;
209;SDS011;90;48.810;9.120;2023-08-24T05:32:26;20.00;;;16.47;;
209;SDS011;90;48.810;9.120;2023-08-24T05:34:53;20.80;;;15.83;;
209;SDS011;90;48.810;9.120;2023-08-24T05:37:20;17.80;;;15.17;;
209;SDS011;90;48.810;9.120;2023-08-24T05:39:47;15.07;;;14.27;;
209;SDS011;90;48.810;9.120;2023-08-24T05:42:15;17.63;;;13.73;;
209;SDS011;90;48.810;9.120;2023-08-24T05:44:43;20.00;;;13.67;;
209;SDS011;90;48.810;9.120;2023-08-24T05:47:10;15.00;;;13.97;;
209;SDS011;90;48.810;9.120;2023-08-24T05:49:37;14.17;;;13.47;;
209;SDS011;90;48.810;9.120;2023-08-24T05:52:06;16.93;;;13.67;;
209;SDS011;90;48.810;9.120;2023-08-24T05:54:35;21.17;;;13.90;;
209;SDS011;90;48.810;9.120;2023-08-24T05:57:02;15.20;;;14.40;;
209;SDS011;90;48.810;9.120;2023-08-24T05:59:30;14.90;;;13.90;;
209;SDS011;90;48.810;9.120;2023-08-24T06:01:58;14.27;;;13.43;;
209;SDS011;90;48.810;9.120;2023-08-24T06:04:25;19.13;;;13.93;;
209;SDS011;90;48.810;9.120;2023-08-24T06:06:53;15.57;;;14.20;;
209;SDS011;90;48.810;9.120;2023-08-24T06:09:20;13.63;;;12.93;;
209;SDS011;90;48.810;9.120;2023-08-24T06:11:47;15.17;;;14.37;;
209;SDS011;90;48.810;9.120;2023-08-24T06:14:14;16.43;;;13.40;;
209;SDS011;90;48.810;9.120;2023-08-24T06:16:41;17.90;;;13.87;;
209;SDS011;90;48.810;9.120;2023-08-24T06:19:10;13.50;;;12.80;;
209;SDS011;90;48.810;9.120;2023-08-24T06:21:37;13.30;;;12.60;;
209;SDS011;90;48.810;9.120;2023-08-24T06:24:05;13.17;;;12.47;;
209;SDS011;90;48.810;9.120;2023-08-24T06:26:32;13.47;;;12.77;;
209;SDS011;90;48.810;9.120;2023-08-24T06:28:59;13.00;;;12.30;;
209;SDS011;90;48.810;9.120;2023-08-24T06:31:26;18.60;;;13.20;;
209;SDS011;90;48.810;9.120;2023-08-24T06:33:55;14.43;;;12.93;;
209;SDS011;90;48.810;9.120;2023-08-24T06:36:23;17.97;;;13.13;;
209;SDS011;90;48.810;9.120;2023-08-24T06:38:50;13.93;;;13.27;;
209;SDS011;90;48.810;9.120;2023-08-24T06:41:19;18.50;;;15.73;;
209;SDS011;90;48.810;9.120;2023-08-24T06:43:46;21.10;;;16.27;;
209;SDS011;90;48.810;9.120;2023-08-24T06:46:13;36.03;;;18.90;;
209;SDS011;90;48.810;9.120;2023-08-24T06:48:40;21.23;;;17.90;;
209;SDS011;90;48.810;9.120;2023-08-24T06:51:09;29.63;;;18.80;;
209;SDS011;90;48.810;9.120;2023-08-24T06:53:40;29.73;;;19.57;;
209;SDS011;90;48.810;9.120;2023-08-24T06:56:07;21.40;;;17.63;;
209;SDS011;90;48.810;9.120;2023-08-24T06:58:34;23.87;;;16.93;;
209;SDS011;90;48.810;9.120;2023-08-24T07:01:01;18.87;;;17.23;;
209;SDS011;90;48.810;9.120;2023-08-24T07:03:31;20.00;;;15.80;;
209;SDS011;90;48.810;9.120;2023-08-24T07:05:58;20.83;;;14.60;;
209;SDS011;90;48.810;9.120;2023-08-24T07:08:25;19.60;;;15.87;;
209;SDS011;90;48.810;9.120;2023-08-24T07:10:54;22.93;;;15.40;;
209;SDS011;90;48.810;9.120;2023-08-24T07:13:21;19.77;;;15.00;;
209;SDS011;90;48.810;9.120;2023-08-24T07:15:48;24.60;;;17.03;;
209;SDS011;90;48.810;9.120;2023-08-24T07:18:16;18.07;;;15.70;;
209;SDS011;90;48.810;9.120;2023-08-24T07:20:43;29.23;;;15.40;;
209;SDS011;90;48.810;9.120;2023-08-24T07:23:10;18.10;;;14.70;;
209;SDS011;90;48.810;9.120;2023-08-24T07:25:37;26.60;;;17.03;;
209;SDS011;90;48.810;9.120;2023-08-24T07:28:06;28.53;;;16.30;;
209;SDS011;90;48.810;9.120;2023-08-24T07:30:35;26.60;;;15.87;;
209;SDS011;90;48.810;9.120;2023-08-24T07:33:02;22.37;;;17.10;;
209;SDS011;90;48.810;9.120;2023-08-24T07:35:29;16.40;;;15.20;;
209;SDS011;90;48.810;9.120;2023-08-24T07:37:56;17.37;;;16.00;;
209;SDS011;90;48.810;9.120;2023-08-24T07:40:24;16.73;;;14.80;;
209;SDS011;90;48.810;9.120;2023-08-24T07:42:52;18.53;;;14.70;;
209;SDS011;90;48.810;9.120;2023-08-24T07:45:22;21.10;;;16.00;;
209;SDS011;90;48.810;9.120;2023-08-24T07:47:49;17.07;;;15.40;;
209;SDS011;90;48.810;9.120;2023-08-24T07:50:17;17.67;;;15.60;;
209;SDS011;90;48.810;9.120;2023-08-24T07:52:44;19.47;;;15.50;;
209;SDS011;90;48.810;9.120;2023-08-24T07:55:11;16.13;;;15.30;;
209;SDS011;90;48.810;9.120;2023-08-24T07:57:38;17.97;;;14.80;;
209;SDS011;90;48.810;9.120;2023-08-24T08:00:05;16.00;;;15.20;;
209;SDS011;90;48.810;9.120;2023-08-24T08:02:36;18.63;;;15.93;;
209;SDS011;90;48.810;9.120;2023-08-24T08:05:03;20.63;;;15.30;;
209;SDS011;90;48.810;9.120;2023-08-24T08:07:32;24.40;;;14.50;;
209;SDS011;90;48.810;9.120;2023-08-24T08:09:59;19.90;;;14.43;;
209;SDS011;90;48.810;9.120;2023-08-24T08:12:26;14.60;;;13.83;;
209;SDS011;90;48.810;9.120;2023-08-24T08:14:54;17.00;;;14.00;;
209;SDS011;90;48.810;9.120;2023-08-24T08:17:21;19.73;;;15.50;;
209;SDS011;90;48.810;9.120;2023-08-24T08:19:50;16.90;;;13.87;;
209;SDS011;90;48.810;9.120;2023-08-24T08:22:20;21.73;;;14.50;;
209;SDS011;90;48.810;9.120;2023-08-24T08:24:47;13.70;;;13.03;;
209;SDS011;90;48.810;9.120;2023-08-24T08:27:15;13.63;;;12.87;;
209;SDS011;90;48.810;9.120;2023-08-24T08:29:41;14.67;;;13.23;;
209;SDS011;90;48.810;9.120;2023-08-24T08:32:08;16.97;;;14.43;;
209;SDS011;90;48.810;9.120;2023-08-24T08:34:37;14.43;;;12.90;;
209;SDS011;90;48.810;9.120;2023-08-24T08:37:05;15.97;;;13.60;;
209;SDS011;90;48.810;9.120;2023-08-24T08:39:32;16.03;;;12.90;;
209;SDS011;90;48.810;9.120;2023-08-24T08:41:59;14.00;;;13.30;;
209;SDS011;90;48.810;9.120;2023-08-24T08:44:26;14.80;;;13.40;;
209;SDS011;90;48.810;9.120;2023-08-24T08:46:57;20.23;;;12.80;;
209;SDS011;90;48.810;9.120;2023-08-24T08:49:24;14.07;;;12.37;;
209;SDS011;90;48.810;9.120;2023-08-24T08:51:51;15.47;;;12.33;;
209;SDS011;90;48.810;9.120;2023-08-24T08:54:20;14.83;;;12.60;;
209;SDS011;90;48.810;9.120;2023-08-24T08:56:48;14.27;;;12.37;;
209;SDS011;90;48.810;9.120;2023-08-24T08:59:19;13.00;;;12.30;;
209;SDS011;90;48.810;9.120;2023-08-24T09:01:48;15.77;;;12.17;;
209;SDS011;90;48.810;9.120;2023-08-24T09:04:17;17.57;;;12.33;;
209;SDS011;90;48.810;9.120;2023-08-24T09:06:44;14.25;;;11.10;;
209;SDS011;90;48.810;9.120;2023-08-24T09:09:11;13.97;;;11.77;;
209;SDS011;90;48.810;9.120;2023-08-24T09:11:42;14.43;;;12.73;;
209;SDS011;90;48.810;9.120;2023-08-24T09:14:12;14.87;;;11.23;;
209;SDS011;90;48.810;9.120;2023-08-24T09:16:39;16.63;;;12.03;;
209;SDS011;90;48.810;9.120;2023-08-24T09:19:10;19.33;;;12.47;;
209;SDS011;90;48.810;9.120;2023-08-24T09:21:38;16.20;;;11.90;;
209;SDS011;90;48.810;9.120;2023-08-24T09:24:07;16.00;;;11.97;;
209;SDS011;90;48.810;9.120;2023-08-24T09:26:35;12.82;;;10.90;;
209;SDS011;90;48.810;9.120;2023-08-24T09:29:12;14.50;;;11.87;;
209;SDS011;90;48.810;9.120;2023-08-24T09:31:40;13.50;;;12.00;;
209;SDS011;90;48.810;9.120;2023-08-24T09:34:09;15.70;;;12.60;;
209;SDS011;90;48.810;9.120;2023-08-24T09:36:36;12.93;;;12.17;;
209;SDS011;90;48.810;9.120;2023-08-24T09:39:04;13.03;;;12.40;;
209;SDS011;90;48.810;9.120;2023-08-24T09:41:41;17.10;;;13.17;;
209;SDS011;90;48.810;9.120;2023-08-24T09:44:09;14.00;;;12.27;;
209;SDS011;90;48.810;9.120;2023-08-24T09:46:38;16.17;;;13.30;;
209;SDS011;90;48.810;9.120;2023-08-24T09:49:06;14.10;;;13.23;;
209;SDS011;90;48.810;9.120;2023-08-24T09:51:34;13.50;;;12.30;;
209;SDS011;90;48.810;9.120;2023-08-24T09:54:02;13.67;;;12.37;;
209;SDS011;90;48.810;9.120;2023-08-24T09:56:37;13.73;;;12.40;;
209;SDS011;90;48.810;9.120;2023-08-24T09:59:07;15.43;;;12.87;;
209;SDS011;90;48.810;9.120;2023-08-24T10:01:42;13.70;;;13.00;;
209;SDS011;90;48.810;9.120;2023-08-24T10:04:09;13.67;;;12.97;;
209;SDS011;90;48.810;9.120;2023-08-24T10:06:38;13.40;;;12.70;;
209;SDS011;90;48.810;9.120;2023-08-24T10:09:06;12.57;;;11.93;;
209;SDS011;90;48.810;9.120;2023-08-24T10:11:34;13.50;;;12.80;;
209;SDS011;90;48.810;9.120;2023-08-24T10:14:07;16.33;;;13.50;;
209;SDS011;90;48.810;9.120;2023-08-24T10:16:37;14.43;;;13.23;;
209;SDS011;90;48.810;9.120;2023-08-24T10:19:07;12.87;;;12.17;;
209;SDS011;90;48.810;9.120;2023-08-24T10:21:34;13.60;;;12.37;;
209;SDS011;90;48.810;9.120;2023-08-24T10:24:03;13.90;;;13.20;;
209;SDS011;90;48.810;9.120;2023-08-24T10:26:32;14.03;;;12.80;;
209;SDS011;90;48.810;9.120;2023-08-24T10:28:59;16.20;;;14.37;;
209;SDS011;90;48.810;9.120;2023-08-24T10:31:26;15.43;;;13.70;;
209;SDS011;90;48.810;9.120;2023-08-24T10:33:54;16.50;;;13.60;;
209;SDS011;90;48.810;9.120;2023-08-24T10:36:25;18.90;;;13.80;;
209;SDS011;90;48.810;9.120;2023-08-24T10:38:55;15.20;;;13.77;;
209;SDS011;90;48.810;9.120;2023-08-24T10:41:25;14.23;;;13.53;;
209;SDS011;90;48.810;9.120;2023-08-24T10:43:53;14.63;;;13.57;;
209;SDS011;90;48.810;9.120;2023-08-24T10:46:34;18.90;;;14.20;;
209;SDS011;90;48.810;9.120;2023-08-24T10:49:03;15.27;;;14.47;;
209;SDS011;90;48.810;9.120;2023-08-24T10:51:31;14.53;;;13.83;;
209;SDS011;90;48.810;9.120;2023-08-24T10:54:09;15.90;;;14.07;;
209;SDS011;90;48.810;9.120;2023-08-24T10:56:37;15.53;;;14.73;;
209;SDS011;90;48.810;9.120;2023-08-24T10:59:11;15.37;;;14.57;;
209;SDS011;90;48.810;9.120;2023-08-24T11:01:40;14.80;;;14.03;;
209;SDS011;90;48.810;9.120;2023-08-24T11:04:07;14.50;;;13.60;;
209;SDS011;90;48.810;9.120;2023-08-24T11:06:51;15.70;;;14.80;;
209;SDS011;90;48.810;9.120;2023-08-24T11:09:22;15.10;;;14.30;;
209;SDS011;90;48.810;9.120;2023-08-24T11:11:59;37.57;;;24.43;;
209;SDS011;90;48.810;9.120;2023-08-24T11:14:29;45.30;;;27.50;;
209;SDS011;90;48.810;9.120;2023-08-24T11:16:58;31.07;;;23.67;;
209;SDS011;90;48.810;9.120;2023-08-24T11:19:26;23.93;;;17.60;;
209;SDS011;90;48.810;9.120;2023-08-24T11:21:54;19.87;;;15.73;;
209;SDS011;90;48.810;9.120;2023-08-24T11:24:22;17.73;;;15.40;;
209;SDS011;90;48.810;9.120;2023-08-24T11:26:50;15.93;;;15.10;;
209;SDS011;90;48.810;9.120;2023-08-24T11:29:17;47.40;;;28.40;;
209;SDS011;90;48.810;9.120;2023-08-24T11:31:44;37.07;;;22.70;;
209;SDS011;90;48.810;9.120;2023-08-24T11:34:14;20.57;;;16.70;;
209;SDS011;90;48.810;9.120;2023-08-24T11:36:41;23.67;;;18.70;;
209;SDS011;90;48.810;9.120;2023-08-24T11:39:14;21.80;;;16.63;;
209;SDS011;90;48.810;9.120;2023-08-24T11:41:43;19.60;;;15.17;;
209;SDS011;90;48.810;9.120;2023-08-24T11:44:10;18.37;;;17.47;;
209;SDS011;90;48.810;9.120;2023-08-24T11:46:38;19.30;;;15.93;;
209;SDS011;90;48.810;9.120;2023-08-24T11:49:05;21.37;;;15.40;;
209;SDS011;90;48.810;9.120;2023-08-24T11:51:32;17.35;;;15.10;;
209;SDS011;90;48.810;9.120;2023-08-24T11:54:00;17.33;;;15.00;;
209;SDS011;90;48.810;9.120;2023-08-24T11:56:29;16.13;;;14.80;;
209;SDS011;90;48.810;9.120;2023-08-24T11:58:56;18.83;;;16.30;;
209;SDS011;90;48.810;9.120;2023-08-24T12:01:23;16.73;;;14.20;;
209;SDS011;90;48.810;9.120;2023-08-24T12:03:52;19.23;;;15.40;;
209;SDS011;90;48.810;9.120;2023-08-24T12:06:19;23.07;;;15.37;;
209;SDS011;90;48.810;9.120;2023-08-24T12:08:46;19.70;;;15.30;;
209;SDS011;90;48.810;9.120;2023-08-24T12:11:16;19.23;;;15.90;;
209;SDS011;90;48.810;9.120;2023-08-24T12:13:45;17.90;;;13.83;;
209;SDS011;90;48.810;9.120;2023-08-24T12:16:13;18.07;;;14.27;;
209;SDS011;90;48.810;9.120;2023-08-24T12:18:49;23.30;;;14.67;;
209;SDS011;90;48.810;9.120;2023-08-24T12:21:17;17.73;;;14.40;;
209;SDS011;90;48.810;9.120;2023-08-24T12:23:54;17.00;;;13.73;;
209;SDS011;90;48.810;9.120;2023-08-24T12:26:22;20.30;;;13.90;;
209;SDS011;90;48.810;9.120;2023-08-24T12:28:50;21.07;;;14.23;;
209;SDS011;90;48.810;9.120;2023-08-24T12:31:18;15.73;;;12.80;;
209;SDS011;90;48.810;9.120;2023-08-24T12:33:46;20.23;;;13.90;;
209;SDS011;90;48.810;9.120;2023-08-24T12:36:25;20.40;;;14.63;;
209;SDS011;90;48.810;9.120;2023-08-24T12:39:04;18.20;;;13.20;;
209;SDS011;90;48.810;9.120;2023-08-24T12:41:32;19.90;;;13.03;;
209;SDS011;90;48.810;9.120;2023-08-24T12:44:02;17.80;;;13.70;;
209;SDS011;90;48.810;9.120;2023-08-24T12:46:31;17.50;;;13.60;;
209;SDS011;90;48.810;9.120;2023-08-24T12:48:58;19.53;;;14.00;;
209;SDS011;90;48.810;9.120;2023-08-24T12:51:24;29.33;;;14.13;;
209;SDS011;90;48.810;9.120;2023-08-24T12:53:51;16.90;;;13.10;;
209;SDS011;90;48.810;9.120;2023-08-24T12:56:18;17.43;;;13.30;;
209;SDS011;90;48.810;9.120;2023-08-24T12:58:45;21.53;;;13.20;;
209;SDS011;90;48.810;9.120;2023-08-24T13:01:14;17.30;;;12.90;;
209;SDS011;90;48.810;9.120;2023-08-24T13:03:42;17.30;;;14.40;;
209;SDS011;90;48.810;9.120;2023-08-24T13:06:09;18.83;;;13.23;;
209;SDS011;90;48.810;9.120;2023-08-24T13:08:36;18.10;;;13.80;;
209;SDS011;90;48.810;9.120;2023-08-24T13:11:03;15.63;;;13.93;;
209;SDS011;90;48.810;9.120;2023-08-24T13:13:31;16.20;;;13.13;;
209;SDS011;90;48.810;9.120;2023-08-24T13:15:58;15.17;;;12.83;;
209;SDS011;90;48.810;9.120;2023-08-24T13:18:27;16.37;;;13.13;;
209;SDS011;90;48.810;9.120;2023-08-24T13:20:54;24.50;;;13.50;;
209;SDS011;90;48.810;9.120;2023-08-24T13:23:21;14.87;;;13.47;;
209;SDS011;90;48.810;9.120;2023-08-24T13:25:48;15.07;;;12.93;;
209;SDS011;90;48.810;9.120;2023-08-24T13:28:15;25.93;;;13.10;;
209;SDS011;90;48.810;9.120;2023-08-24T13:30:41;17.17;;;13.43;;
209;SDS011;90;48.810;9.120;2023-08-24T13:33:13;15.70;;;12.97;;
209;SDS011;90;48.810;9.120;2023-08-24T13:35:44;15.83;;;13.20;;
209;SDS011;90;48.810;9.120;2023-08-24T13:38:11;18.97;;;13.00;;
209;SDS011;90;48.810;9.120;2023-08-24T13:40:38;20.73;;;12.70;;
209;SDS011;90;48.810;9.120;2023-08-24T13:43:05;18.13;;;13.10;;
209;SDS011;90;48.810;9.120;2023-08-24T13:45:32;15.13;;;12.10;;
209;SDS011;90;48.810;9.120;2023-08-24T13:48:00;19.50;;;12.40;;
209;SDS011;90;48.810;9.120;2023-08-24T13:50:27;16.47;;;12.50;;
209;SDS011;90;48.810;9.120;2023-08-24T13:52:56;25.33;;;12.73;;
209;SDS011;90;48.810;9.120;2023-08-24T13:55:23;16.53;;;12.80;;
209;SDS011;90;48.810;9.120;2023-08-24T13:57:50;16.30;;;12.70;;
209;SDS011;90;48.810;9.120;2023-08-24T14:00:17;21.30;;;12.27;;
209;SDS011;90;48.810;9.120;2023-08-24T14:02:45;18.67;;;12.33;;
209;SDS011;90;48.810;9.120;2023-08-24T14:05:13;17.53;;;11.63;;
209;SDS011;90;48.810;9.120;2023-08-24T14:07:41;16.03;;;12.10;;
209;SDS011;90;48.810;9.120;2023-08-24T14:10:09;18.13;;;11.63;;
209;SDS011;90;48.810;9.120;2023-08-24T14:12:37;14.00;;;11.57;;
209;SDS011;90;48.810;9.120;2023-08-24T14:15:04;24.37;;;12.80;;
209;SDS011;90;48.810;9.120;2023-08-24T14:17:32;18.97;;;11.40;;
209;SDS011;90;48.810;9.120;2023-08-24T14:19:59;22.00;;;11.73;;
209;SDS011;90;48.810;9.120;2023-08-24T14:22:29;15.93;;;11.00;;
209;SDS011;90;48.810;9.120;2023-08-24T14:24:56;14.83;;;10.63;;
209;SDS011;90;48.810;9.120;2023-08-24T14:27:25;17.20;;;12.00;;
209;SDS011;90;48.810;9.120;2023-08-24T14:29:52;17.87;;;10.70;;
209;SDS011;90;48.810;9.120;2023-08-24T14:32:19;17.67;;;9.93;;
209;SDS011;90;48.810;9.120;2023-08-24T14:34:48;17.20;;;10.63;;
209;SDS011;90;48.810;9.120;2023-08-24T14:37:15;15.10;;;10.60;;
209;SDS011;90;48.810;9.120;2023-08-24T14:39:42;20.30;;;10.80;;
209;SDS011;90;48.810;9.120;2023-08-24T14:42:09;14.60;;;10.63;;
209;SDS011;90;48.810;9.120;2023-08-24T14:44:38;19.33;;;11.47;;
209;SDS011;90;48.810;9.120;2023-08-24T14:47:04;14.57;;;11.60;;
209;SDS011;90;48.810;9.120;2023-08-24T14:49:31;29.93;;;12.87;;
209;SDS011;90;48.810;9.120;2023-08-24T14:51:58;18.20;;;10.70;;
209;SDS011;90;48.810;9.120;2023-08-24T14:54:25;22.67;;;11.77;;
209;SDS011;90;48.810;9.120;2023-08-24T14:56:51;40.67;;;14.53;;
209;SDS011;90;48.810;9.120;2023-08-24T14:59:19;30.73;;;14.77;;
209;SDS011;90;48.810;9.120;2023-08-24T15:01:47;42.77;;;15.53;;
209;SDS011;90;48.810;9.120;2023-08-24T15:04:14;30.20;;;14.00;;
209;SDS011;90;48.810;9.120;2023-08-24T15:06:41;21.77;;;11.37;;
209;SDS011;90;48.810;9.120;2023-08-24T15:09:09;12.33;;;7.97;;
209;SDS011;90;48.810;9.120;2023-08-24T15:11:36;13.30;;;6.70;;
209;SDS011;90;48.810;9.120;2023-08-24T15:14:03;15.97;;;7.13;;
209;SDS011;90;48.810;9.120;2023-08-24T15:16:30;9.83;;;7.53;;
209;SDS011;90;48.810;9.120;2023-08-24T15:18:59;14.80;;;8.27;;
209;SDS011;90;48.810;9.120;2023-08-24T15:21:26;11.03;;;8.10;;
209;SDS011;90;48.810;9.120;2023-08-24T15:23:53;10.83;;;8.63;;
209;SDS011;90;48.810;9.120;2023-08-24T15:26:21;13.40;;;9.73;;
209;SDS011;90;48.810;9.120;2023-08-24T15:29:07;11.10;;;9.10;;
209;SDS011;90;48.810;9.120;2023-08-24T15:31:35;16.50;;;10.50;;
209;SDS011;90;48.810;9.120;2023-08-24T15:34:03;19.83;;;11.47;;
209;SDS011;90;48.810;9.120;2023-08-24T15:36:30;15.53;;;11.83;;